Keene, CA

6:00 PM PST on February 13, 2016 (GMT -0800)
Deer Creek, Hart Flat, CA, US | | Change Station
CLOSE
Current Station
Personal Weather Station
Location: Keene, CA
Elevation: 2854 ft
Nearby Weather Stations

Elev 2854 ft 35.25 °N, 118.61 °W | Updated 4 minutes ago

Partly Cloudy
Partly Cloudy
53.6 °F
Feels Like 53.6 °F
N
0.0
Wind Variable Wind from SSW
Gusts 0.0 mph

Today
High -- | Low -- °F
--% Chance of Precip.
Yesterday
High -- | Low -- °F
Precip. -- in
Pressure 30.24 in
Visibility 1.5 miles
Clouds Scattered Clouds 300 ft
Dew Point 49 °F
Humidity 84%
Rainfall 0.00 in
Snow Depth Not available.
6:43 AM 5:34 PM
Waxing Crescent, 36% visible
METAR KTSP 140155Z AUTO 01008KT 1 1/2SM BR SCT003 08/08 A3024 RMK AO2
Pressure 30.24 in
Visibility 1.5 miles
Clouds Scattered Clouds 300 ft
Dew Point 49 °F
Humidity 84%
Rainfall 0.00 in
Snow Depth Not available.
6:43 AM 5:34 PM
Waxing Crescent, 36% visible
METAR KTSP 140155Z AUTO 01008KT 1 1/2SM BR SCT003 08/08 A3024 RMK AO2

10-Day Weather Forecast

Almanac

Astronomy

Feb. 13, 2016 Rise Set
Actual Time
Civil Twilight
Nautical Twilight
Astronomical Twilight
Moon
Length of Visible Light
Length of Day
Tomorrow will be .
, % of the Moon is Illuminated

Today's Extremes

State Highs State Lows

Community

WunderPhotos

Upload Photos

1,892,722 photos uploaded!

WunderBlog® & News

Nearby

Air Quality

  Air Quality AQ Index Pollutant
Not available.

Snow Depth

Station Depth Elevation

Earthquake Activity

City Distance Mag. Time & Date
Minimum magnitude displayed is 2.5.

Coastal Water Temperatures

Place Temperature

Stations

Nearby Weather Stations

Station Location Temp. Windchill Dew Point Humidity Wind Precip. Elev Updated Type
                   

Watches & Warnings

There are currently no watches in effect.